Time;durP1;ratioP1;P1;durP2;ratioP2;P2;SDS_P1;SDS_P2;PMS_P1;PMS_P2;Temp;Humidity;BMP_temperature;BMP_pressure;BME280_temperature;BME280_humidity;BME280_pressure;Samples;Min_cycle;Max_cycle;Signal;HPM_P1;HPM_P2
2023/10/07 06:28:50;;;;;;;;;;;;;;;17.12;62.06;97905.03;4226639;27;10364;-58
2023/10/07 06:30:59;;;;;;;;;;;;;;;17.40;61.67;97902.91;4213655;28;5643;-59
2023/10/07 06:33:04;;;;;;;;;;;;;;;17.64;61.06;97912.09;4214595;28;5639;-59
2023/10/07 06:35:13;;;;;;;;;;;;;;;17.83;60.54;97910.41;4214608;28;5808;-61
2023/10/07 06:37:16;;;;;;;;;;;;;;;17.99;59.98;97919.81;4214638;28;5703;-59
2023/10/07 06:39:27;;;;;;;;;;;;;;;18.12;59.70;97919.75;4214463;28;5619;-61
2023/10/07 06:41:30;;;;;;;;;;;;;;;18.22;59.27;97920.09;4216979;28;5726;-59
2023/10/07 06:43:33;;;;;;;;;;;;;;;18.31;58.88;97923.34;4208735;28;6467;-59
2023/10/07 06:45:39;;;;;;;;;;;;;;;18.38;58.66;97913.44;4214404;28;5686;-60
2023/10/07 06:47:42;;;;;;;;;;;;;;;18.45;58.31;97916.88;4211483;28;5635;-60
2023/10/07 06:49:45;;;;;;;;;;;;;;;18.50;58.22;97911.72;4217950;28;6317;-60
2023/10/07 06:51:51;;;;;;;;;;;;;;;18.55;57.91;97917.22;4216121;28;6490;-60
2023/10/07 06:53:53;;;;;;;;;;;;;;;18.59;57.58;97910.41;4205904;28;5643;-59
2023/10/07 06:55:58;;;;;;;;;;;;;;;18.65;57.36;97914.09;4221143;28;5683;-60
2023/10/07 06:58:04;;;;;;;;;;;;;;;18.68;57.15;97913.66;4210946;28;5620;-59
2023/10/07 07:00:12;;;;;;;;;;;;;;;18.73;57.02;97921.06;4213274;28;5826;-59
2023/10/07 07:02:18;;;;;;;;;;;;;;;18.76;57.08;97921.44;4215307;28;5779;-59
2023/10/07 07:04:23;;;;;;;;;;;;;;;18.80;56.77;97921.81;4210837;28;6000;-60
2023/10/07 07:06:34;;;;;;;;;;;;;;;18.81;56.88;97923.47;4206378;28;5073;-59
2023/10/07 07:08:37;;;;;;;;;;;;;;;18.86;56.59;97931.66;4205952;28;5786;-59
2023/10/07 07:10:40;;;;;;;;;;;;;;;18.87;56.60;97930.63;4202945;28;5134;-59
2023/10/07 07:12:44;;;;;;;;;;;;;;;18.90;56.69;97938.22;4211087;28;5730;-59
2023/10/07 07:14:50;;;;;;;;;;;;;;;18.92;56.45;97928.13;4203580;28;5766;-59
2023/10/07 07:16:54;;;;;;;;;;;;;;;18.97;56.46;97932.81;4190012;28;5890;-59
2023/10/07 07:18:59;;;;;;;;;;;;;;;18.97;56.59;97930.97;4208177;28;5850;-59
2023/10/07 07:21:02;;;;;;;;;;;;;;;18.99;56.54;97926.19;4216075;28;5617;-59
2023/10/07 07:23:15;;;;;;;;;;;;;;;19.01;56.67;97918.75;4208125;28;5771;-59
2023/10/07 07:25:23;;;;;;;;;;;;;;;19.04;56.25;97917.53;4225821;28;5700;-59
2023/10/07 07:27:26;;;;;;;;;;;;;;;19.07;56.41;97917.88;4221862;28;6491;-60
2023/10/07 07:29:30;;;;;;;;;;;;;;;19.09;56.47;97921.16;4211707;28;5868;-59
2023/10/07 07:31:35;;;;;;;;;;;;;;;19.11;56.43;97927.13;4199775;28;5715;-65
2023/10/07 07:33:39;;;;;;;;;;;;;;;19.12;56.44;97939.47;4191219;28;7172;-62
2023/10/07 07:35:44;;;;;;;;;;;;;;;19.13;56.22;97938.44;4199855;28;5866;-63
2023/10/07 07:37:46;;;;;;;;;;;;;;;19.16;56.40;97946.06;4197801;28;5691;-63
2023/10/07 07:39:49;;;;;;;;;;;;;;;19.18;56.50;97940.47;4204856;28;5787;-64
2023/10/07 07:41:56;;;;;;;;;;;;;;;19.22;56.36;97954.25;4200816;28;5797;-61
2023/10/07 07:43:59;;;;;;;;;;;;;;;19.24;56.39;97952.16;4192245;28;7694;-65
2023/10/07 07:46:17;;;;;;;;;;;;;;;19.25;56.05;97957.31;4195312;28;5844;-61
2023/10/07 07:48:22;;;;;;;;;;;;;;;19.25;56.14;97951.13;4196820;28;5723;-61
2023/10/07 07:50:26;;;;;;;;;;;;;;;19.26;56.39;97964.34;4196028;28;5837;-62
2023/10/07 07:52:32;;;;;;;;;;;;;;;19.26;56.19;97967.00;4200542;28;5711;-62
2023/10/07 07:54:34;;;;;;;;;;;;;;;19.23;56.43;97963.94;4194075;28;6544;-62
2023/10/07 07:56:42;;;;;;;;;;;;;;;19.19;56.46;97964.38;4184761;28;5804;-62
2023/10/07 07:58:47;;;;;;;;;;;;;;;19.17;56.55;97963.78;4183810;28;5830;-62
2023/10/07 08:00:58;;;;;;;;;;;;;;;19.20;56.73;97955.28;4199203;28;5711;-62
2023/10/07 08:03:03;;;;;;;;;;;;;;;19.25;56.87;97967.22;4200729;28;5694;-62
2023/10/07 08:05:08;;;;;;;;;;;;;;;19.28;56.70;97969.47;4192526;28;6484;-62
2023/10/07 08:07:18;;;;;;;;;;;;;;;19.30;56.50;97967.38;4195752;28;5639;-63
2023/10/07 08:09:24;;;;;;;;;;;;;;;19.31;56.83;97955.63;4204069;28;5643;-62
2023/10/07 08:11:27;;;;;;;;;;;;;;;19.34;56.82;97957.84;4200085;28;5637;-62
2023/10/07 08:13:29;;;;;;;;;;;;;;;19.36;56.53;97948.53;4192232;28;6375;-62
2023/10/07 08:15:38;;;;;;;;;;;;;;;19.40;56.48;97943.56;4206611;28;5609;-62
2023/10/07 08:17:44;;;;;;;;;;;;;;;19.43;56.72;97949.31;4207837;28;6321;-62
2023/10/07 08:19:50;;;;;;;;;;;;;;;19.45;56.48;97951.75;4191777;28;5894;-62
2023/10/07 08:21:54;;;;;;;;;;;;;;;19.46;56.36;97958.75;4196700;28;5812;-62
2023/10/07 08:24:01;;;;;;;;;;;;;;;19.49;56.71;97958.34;4200067;28;5907;-62
2023/10/07 08:26:10;;;;;;;;;;;;;;;19.51;56.35;97961.63;4192247;28;5773;-62
2023/10/07 08:28:19;;;;;;;;;;;;;;;19.51;56.37;97958.94;4200747;28;5835;-61
2023/10/07 08:30:37;;;;;;;;;;;;;;;19.55;56.54;97961.97;4196228;28;5740;-62
2023/10/07 08:32:41;;;;;;;;;;;;;;;19.57;56.51;97952.69;4200419;28;5816;-61
2023/10/07 08:34:47;;;;;;;;;;;;;;;19.57;56.18;97944.66;4199868;28;5719;-62
2023/10/07 08:36:51;;;;;;;;;;;;;;;19.59;56.11;97939.06;4194955;28;5639;-62
2023/10/07 08:38:53;;;;;;;;;;;;;;;19.60;56.05;97954.97;4190833;28;5841;-62
2023/10/07 08:41:04;;;;;;;;;;;;;;;19.63;56.13;97957.19;4183303;28;5769;-62
2023/10/07 08:43:16;;;;;;;;;;;;;;;19.64;56.10;97958.81;4194297;28;5836;-61
2023/10/07 08:45:23;;;;;;;;;;;;;;;19.67;55.77;97958.38;4200701;28;5140;-62
2023/10/07 08:47:39;;;;;;;;;;;;;;;19.69;56.01;97956.28;4191890;28;5908;-62
2023/10/07 08:49:43;;;;;;;;;;;;;;;19.71;55.64;97954.22;4199414;28;5617;-62
2023/10/07 08:51:46;;;;;;;;;;;;;;;19.71;55.86;97959.59;4208116;28;6516;-62
2023/10/07 08:53:56;;;;;;;;;;;;;;;19.71;55.42;97948.03;4199043;28;5650;-60
2023/10/07 08:56:00;;;;;;;;;;;;;;;19.71;55.58;97951.53;4184954;28;6482;-61
2023/10/07 08:58:04;;;;;;;;;;;;;;;19.73;55.29;97952.13;4202515;28;5804;-62
2023/10/07 09:00:14;;;;;;;;;;;;;;;19.74;55.67;97959.13;4192090;28;5624;-63
2023/10/07 09:02:26;;;;;;;;;;;;;;;19.75;55.23;97958.09;4206883;28;5745;-62
2023/10/07 09:04:32;;;;;;;;;;;;;;;19.77;55.38;97950.63;4202988;28;5668;-62
2023/10/07 09:06:37;;;;;;;;;;;;;;;19.81;55.49;97955.53;4191263;28;5723;-62
2023/10/07 09:08:40;;;;;;;;;;;;;;;19.82;55.27;97946.44;4193182;28;6721;-62
2023/10/07 09:10:45;;;;;;;;;;;;;;;19.84;55.15;97939.00;4199731;28;5727;-62
2023/10/07 09:12:49;;;;;;;;;;;;;;;19.84;55.48;97949.75;4205941;28;5798;-62
2023/10/07 09:14:55;;;;;;;;;;;;;;;19.84;55.24;97944.38;4198450;28;5652;-62
2023/10/07 09:17:01;;;;;;;;;;;;;;;19.85;55.05;97948.69;4199881;28;5847;-63
2023/10/07 09:19:10;;;;;;;;;;;;;;;19.84;55.16;97942.50;4194140;28;5764;-62
2023/10/07 09:21:19;;;;;;;;;;;;;;;19.87;55.27;97944.75;4202118;28;5808;-62
2023/10/07 09:23:23;;;;;;;;;;;;;;;19.87;55.30;97944.75;4200116;28;5650;-62
2023/10/07 09:25:31;;;;;;;;;;;;;;;19.91;55.23;97950.47;4196229;28;5811;-62
2023/10/07 09:27:37;;;;;;;;;;;;;;;19.92;55.31;97949.41;4192031;28;5847;-61
2023/10/07 09:29:44;;;;;;;;;;;;;;;19.93;54.97;97943.00;4199886;28;5703;-62
2023/10/07 09:31:56;;;;;;;;;;;;;;;19.92;55.15;97949.41;4183685;28;5732;-61
2023/10/07 09:34:09;;;;;;;;;;;;;;;19.93;54.92;97938.50;4206490;28;5671;-62
2023/10/07 09:36:33;;;;;;;;;;;;;;;19.94;55.00;97940.13;4200026;28;6318;-62
2023/10/07 09:38:41;;;;;;;;;;;;;;;19.94;54.82;97936.63;4199641;28;5653;-63
2023/10/07 09:41:11;;;;;;;;;;;;;;;19.97;54.87;97950.41;4199324;28;5723;-62
2023/10/07 09:43:19;;;;;;;;;;;;;;;19.99;54.92;97947.50;4198915;28;5365;-62
2023/10/07 09:45:28;;;;;;;;;;;;;;;20.01;54.80;97954.28;4205129;28;5708;-62
2023/10/07 09:47:33;;;;;;;;;;;;;;;20.01;54.71;97961.50;4201565;28;6467;-62
2023/10/07 09:49:39;;;;;;;;;;;;;;;20.01;54.74;97964.19;4200726;28;5847;-62
2023/10/07 09:51:47;;;;;;;;;;;;;;;20.01;54.69;97956.94;4201417;28;5721;-62
2023/10/07 09:54:07;;;;;;;;;;;;;;;20.05;54.56;97954.66;4198227;28;5943;-62
2023/10/07 09:56:23;;;;;;;;;;;;;;;20.07;54.72;97955.25;4194896;28;5723;-63
2023/10/07 09:58:41;;;;;;;;;;;;;;;20.09;54.38;97953.16;4199764;28;5715;-62
2023/10/07 10:01:04;;;;;;;;;;;;;;;20.09;54.52;97952.34;4191440;28;5778;-61
2023/10/07 10:03:30;;;;;;;;;;;;;;;20.10;54.09;97954.78;4186151;28;5747;-62
2023/10/07 10:05:50;;;;;;;;;;;;;;;20.11;54.29;97948.38;4199103;28;5632;-61
2023/10/07 10:08:19;;;;;;;;;;;;;;;20.11;54.26;97945.69;4184829;28;5760;-61
2023/10/07 10:10:31;;;;;;;;;;;;;;;20.12;53.72;97952.69;4196464;28;5729;-62
2023/10/07 10:12:56;;;;;;;;;;;;;;;20.12;54.14;97958.06;4198037;28;5731;-62
2023/10/07 10:15:50;;;;;;;;;;;;;;;20.16;53.94;97953.06;4194000;28;5999;-62
2023/10/07 10:17:33;;;;;;;;;;;;;;;20.18;53.87;97951.00;4213518;28;5617;-63
2023/10/07 10:19:47;;;;;;;;;;;;;;;20.17;53.65;97950.16;4180646;28;5640;-61
2023/10/07 10:21:51;;;;;;;;;;;;;;;20.17;53.62;97950.16;4192632;28;5791;-61
2023/10/07 10:23:55;;;;;;;;;;;;;;;20.20;53.47;97935.47;4197527;28;6782;-61
2023/10/07 10:26:03;;;;;;;;;;;;;;;20.21;53.40;97935.22;4191471;28;5841;-67
2023/10/07 10:28:10;;;;;;;;;;;;;;;20.22;53.47;97931.50;4194253;28;5637;-67
2023/10/07 10:30:21;;;;;;;;;;;;;;;20.24;53.02;97939.31;4193575;28;5808;-69
2023/10/07 10:32:29;;;;;;;;;;;;;;;20.23;53.26;97935.00;4190534;28;5808;-66
2023/10/07 10:34:32;;;;;;;;;;;;;;;20.24;52.97;97937.47;4190890;28;5811;-66
2023/10/07 10:36:40;;;;;;;;;;;;;;;20.25;53.07;97932.91;4203981;28;5704;-66
2023/10/07 10:38:45;;;;;;;;;;;;;;;20.27;52.86;97933.50;4183442;28;5741;-66
2023/10/07 10:40:48;;;;;;;;;;;;;;;20.28;52.60;97932.47;4198287;28;5775;-62
2023/10/07 10:42:51;;;;;;;;;;;;;;;20.30;52.55;97928.50;4191503;28;5719;-67
2023/10/07 10:44:54;;;;;;;;;;;;;;;20.32;52.74;97929.09;4199774;28;5707;-70
2023/10/07 10:46:57;;;;;;;;;;;;;;;20.32;52.51;97926.41;4191556;28;5750;-63
2023/10/07 10:49:01;;;;;;;;;;;;;;;20.33;52.54;97928.03;4193190;28;7795;-63
2023/10/07 10:51:05;;;;;;;;;;;;;;;20.34;52.77;97935.06;4190127;28;5713;-63
2023/10/07 10:53:09;;;;;;;;;;;;;;;20.34;52.68;97924.31;4199192;28;5700;-64
2023/10/07 10:55:13;;;;;;;;;;;;;;;20.34;52.23;97929.69;4190444;28;5612;-64
2023/10/07 10:57:19;;;;;;;;;;;;;;;20.35;52.39;97922.44;4206402;28;5789;-65
2023/10/07 10:59:23;;;;;;;;;;;;;;;20.37;52.22;97909.59;4196773;28;5621;-65
2023/10/07 11:01:27;;;;;;;;;;;;;;;20.41;52.50;97908.13;4187976;28;5749;-63
2023/10/07 11:03:30;;;;;;;;;;;;;;;20.42;52.59;97909.78;4202881;28;5601;-66
2023/10/07 11:05:33;;;;;;;;;;;;;;;20.43;52.73;97910.59;4200348;28;5719;-65
2023/10/07 11:07:38;;;;;;;;;;;;;;;20.43;52.45;97908.72;4201022;28;5712;-69
2023/10/07 11:09:41;;;;;;;;;;;;;;;20.43;52.45;97899.84;4201605;28;6511;-66
2023/10/07 11:11:48;;;;;;;;;;;;;;;20.46;52.12;97904.75;4189920;28;6414;-68
2023/10/07 11:13:55;;;;;;;;;;;;;;;20.44;52.32;97896.13;4196210;28;5640;-65
2023/10/07 11:16:07;;;;;;;;;;;;;;;20.45;52.34;97892.38;4191305;28;5763;-64
2023/10/07 11:18:12;;;;;;;;;;;;;;;20.47;52.39;97891.09;4197764;28;5820;-66
2023/10/07 11:20:19;;;;;;;;;;;;;;;20.49;52.36;97889.00;4195586;28;5792;-64
2023/10/07 11:22:22;;;;;;;;;;;;;;;20.48;52.23;97881.16;4190335;28;5860;-63
2023/10/07 11:24:26;;;;;;;;;;;;;;;20.50;52.21;97889.81;4193200;28;5728;-64
2023/10/07 11:26:32;;;;;;;;;;;;;;;20.51;52.47;97881.56;4196838;28;7151;-65
2023/10/07 11:28:37;;;;;;;;;;;;;;;20.52;52.18;97885.06;4202237;28;5889;-61
2023/10/07 11:30:44;;;;;;;;;;;;;;;20.53;52.34;97879.44;4201418;28;6430;-61
2023/10/07 11:32:47;;;;;;;;;;;;;;;20.53;51.96;97874.06;4201135;28;6503;-62
2023/10/07 11:34:50;;;;;;;;;;;;;;;20.53;52.38;97870.56;4200665;28;5726;-61
2023/10/07 11:36:52;;;;;;;;;;;;;;;20.54;52.09;97878.41;4191046;28;5733;-62
2023/10/07 11:38:56;;;;;;;;;;;;;;;20.55;52.17;97871.16;4207216;28;5620;-62
2023/10/07 11:41:00;;;;;;;;;;;;;;;20.56;51.94;97870.09;4201745;28;5638;-62
2023/10/07 11:43:08;;;;;;;;;;;;;;;20.55;52.28;97871.97;4194638;28;5699;-62
2023/10/07 11:45:11;;;;;;;;;;;;;;;20.57;52.27;97869.88;4204388;28;5759;-62
2023/10/07 11:47:17;;;;;;;;;;;;;;;20.58;51.70;97863.44;4203290;28;6413;-62
2023/10/07 11:49:21;;;;;;;;;;;;;;;20.58;51.96;97866.13;4203661;28;6580;-61
2023/10/07 11:51:24;;;;;;;;;;;;;;;20.56;51.95;97862.88;4202741;28;5714;-62
2023/10/07 11:53:28;;;;;;;;;;;;;;;20.59;51.67;97866.94;4212373;28;5715;-62
2023/10/07 11:55:31;;;;;;;;;;;;;;;20.59;51.45;97858.88;4202568;28;7703;-61
2023/10/07 11:57:35;;;;;;;;;;;;;;;20.58;51.15;97859.94;4203492;28;5869;-60
2023/10/07 11:59:42;;;;;;;;;;;;;;;20.58;50.96;97854.56;4207728;28;5692;-60
2023/10/07 12:01:47;;;;;;;;;;;;;;;20.58;51.02;97857.25;4204823;28;6245;-60
2023/10/07 12:03:50;;;;;;;;;;;;;;;20.59;50.57;97857.03;4196895;28;5609;-59
2023/10/07 12:05:53;;;;;;;;;;;;;;;20.62;50.36;97858.44;4208376;28;5776;-60
2023/10/07 12:07:56;;;;;;;;;;;;;;;20.63;50.46;97855.53;4211396;28;5616;-60
2023/10/07 12:09:59;;;;;;;;;;;;;;;20.65;49.98;97860.66;4204512;28;6326;-60
2023/10/07 12:12:03;;;;;;;;;;;;;;;20.66;49.97;97853.41;4211200;28;5679;-60
2023/10/07 12:14:06;;;;;;;;;;;;;;;20.67;49.83;97847.81;4200984;28;5108;-60
2023/10/07 12:16:09;;;;;;;;;;;;;;;20.68;49.67;97857.50;4204654;28;5648;-60
2023/10/07 12:18:15;;;;;;;;;;;;;;;20.70;49.99;97852.72;4204431;28;5759;-60
2023/10/07 12:20:19;;;;;;;;;;;;;;;20.70;49.90;97855.41;4204520;28;5649;-60
2023/10/07 12:22:22;;;;;;;;;;;;;;;20.73;50.08;97857.66;4204509;28;5747;-60
2023/10/07 12:24:26;;;;;;;;;;;;;;;20.74;49.84;97859.28;4204611;28;5704;-60
2023/10/07 12:26:31;;;;;;;;;;;;;;;20.75;49.60;97857.41;4200061;28;5639;-60
2023/10/07 12:28:34;;;;;;;;;;;;;;;20.73;49.64;97857.66;4203688;28;5735;-60
2023/10/07 12:30:37;;;;;;;;;;;;;;;20.74;48.89;97859.28;4207495;28;5694;-60
2023/10/07 12:32:40;;;;;;;;;;;;;;;20.73;48.66;97854.97;4200033;28;5860;-60
2023/10/07 12:34:47;;;;;;;;;;;;;;;20.76;48.42;97856.34;4199663;28;5825;-60
2023/10/07 12:36:52;;;;;;;;;;;;;;;20.75;48.44;97857.41;4179738;28;5663;-59
2023/10/07 12:38:55;;;;;;;;;;;;;;;20.76;47.49;97856.34;4204007;28;5778;-60
2023/10/07 12:40:58;;;;;;;;;;;;;;;20.77;47.62;97848.06;4196790;28;5743;-59
2023/10/07 12:43:01;;;;;;;;;;;;;;;20.78;47.90;97854.25;4200612;28;5844;-60
2023/10/07 12:45:05;;;;;;;;;;;;;;;20.79;47.02;97845.13;4203950;28;5845;-60
2023/10/07 12:47:08;;;;;;;;;;;;;;;20.79;46.99;97845.94;4200149;28;5782;-60
2023/10/07 12:49:14;;;;;;;;;;;;;;;20.79;47.35;97835.19;4207641;28;5722;-60
2023/10/07 12:51:19;;;;;;;;;;;;;;;20.77;47.15;97848.06;4200670;28;5694;-60
2023/10/07 12:53:22;;;;;;;;;;;;;;;20.77;47.31;97845.38;4198315;28;5794;-60
2023/10/07 12:55:31;;;;;;;;;;;;;;;20.81;46.96;97843.84;4213542;28;5697;-59
2023/10/07 12:57:34;;;;;;;;;;;;;;;20.82;46.77;97845.47;4209247;28;5857;-59
2023/10/07 12:59:37;;;;;;;;;;;;;;;20.83;47.14;97844.44;4202970;28;5891;-60
2023/10/07 13:01:40;;;;;;;;;;;;;;;20.85;46.80;97844.22;4199581;28;5785;-59
2023/10/07 13:03:43;;;;;;;;;;;;;;;20.85;46.49;97839.66;4211551;28;5785;-59
2023/10/07 13:05:46;;;;;;;;;;;;;;;20.86;46.46;97843.97;4202919;28;5688;-59
2023/10/07 13:07:53;;;;;;;;;;;;;;;20.87;45.56;97840.25;4200765;28;5734;-59
2023/10/07 13:09:56;;;;;;;;;;;;;;;20.86;45.89;97840.47;4200200;28;5797;-59
2023/10/07 13:12:00;;;;;;;;;;;;;;;20.87;45.76;97837.56;4199903;28;5652;-59
2023/10/07 13:14:04;;;;;;;;;;;;;;;20.90;46.00;97842.47;4197118;28;5710;-62
2023/10/07 13:16:10;;;;;;;;;;;;;;;20.91;45.49;97835.22;4195268;28;5699;-63
2023/10/07 13:18:15;;;;;;;;;;;;;;;20.91;45.65;97827.97;4204047;28;5748;-63
2023/10/07 13:20:20;;;;;;;;;;;;;;;20.93;45.58;97827.72;4200213;28;7683;-63
2023/10/07 13:22:23;;;;;;;;;;;;;;;20.94;45.49;97829.34;4202055;28;5628;-64
2023/10/07 13:24:29;;;;;;;;;;;;;;;20.95;45.41;97825.63;4198051;28;5710;-59
2023/10/07 13:26:32;;;;;;;;;;;;;;;20.97;45.57;97825.41;4190440;28;5711;-63
2023/10/07 13:28:37;;;;;;;;;;;;;;;20.98;45.61;97827.03;4199450;28;5747;-61
2023/10/07 13:30:40;;;;;;;;;;;;;;;21.00;45.43;97824.94;4207848;28;5656;-63
2023/10/07 13:32:43;;;;;;;;;;;;;;;21.00;45.53;97822.25;4181063;28;5757;-62
2023/10/07 13:34:47;;;;;;;;;;;;;;;21.01;45.62;97821.19;4198744;28;5652;-61
2023/10/07 13:36:50;;;;;;;;;;;;;;;21.02;45.63;97823.63;4199294;28;5679;-61
2023/10/07 13:38:52;;;;;;;;;;;;;;;21.03;45.45;97821.75;4199264;28;7688;-60
2023/10/07 13:40:56;;;;;;;;;;;;;;;21.03;45.60;97816.38;4184160;28;5615;-61
2023/10/07 13:42:59;;;;;;;;;;;;;;;21.03;45.72;97817.19;4195533;28;5672;-59
2023/10/07 13:45:08;;;;;;;;;;;;;;;21.04;45.45;97818.03;4193484;28;5644;-65
2023/10/07 13:47:11;;;;;;;;;;;;;;;21.08;45.56;97813.81;4198947;28;5770;-62
2023/10/07 13:49:14;;;;;;;;;;;;;;;21.09;45.77;97808.22;4195273;28;5748;-62
2023/10/07 13:51:20;;;;;;;;;;;;;;;21.10;45.31;97806.34;4197005;28;5625;-64
2023/10/07 13:53:40;;;;;;;;;;;;;;;21.08;45.78;97805.75;4190452;28;5910;-63
2023/10/07 13:55:55;;;;;;;;;;;;;;;21.10;45.91;97803.66;4191140;28;5723;-63
2023/10/07 13:58:00;;;;;;;;;;;;;;;21.09;46.07;97802.84;4189037;28;5615;-62
2023/10/07 14:00:24;;;;;;;;;;;;;;;21.11;45.59;97799.91;4201742;28;5636;-62
2023/10/07 14:02:27;;;;;;;;;;;;;;;21.10;45.98;97799.09;4193529;28;5714;-62
2023/10/07 14:04:32;;;;;;;;;;;;;;;21.10;45.94;97788.34;4196958;28;5742;-64
2023/10/07 14:06:36;;;;;;;;;;;;;;;21.11;45.66;97797.22;4200050;28;5705;-65
2023/10/07 14:08:43;;;;;;;;;;;;;;;21.09;46.09;97789.38;4207053;28;5637;-63
2023/10/07 14:10:50;;;;;;;;;;;;;;;21.11;46.10;97794.53;4191520;28;5811;-64
2023/10/07 14:12:53;;;;;;;;;;;;;;;21.12;46.13;97790.78;4198202;28;5699;-64
2023/10/07 14:15:03;;;;;;;;;;;;;;;21.14;46.34;97777.91;4192780;28;5623;-63
2023/10/07 14:17:08;;;;;;;;;;;;;;;21.15;46.13;97785.75;4188615;28;5717;-59
2023/10/07 14:19:13;;;;;;;;;;;;;;;21.18;46.08;97787.16;4188015;28;5865;-64
2023/10/07 14:21:19;;;;;;;;;;;;;;;21.19;46.26;97784.22;4191289;28;5841;-59
2023/10/07 14:23:22;;;;;;;;;;;;;;;21.22;46.33;97785.63;4196781;28;5620;-61
2023/10/07 14:25:25;;;;;;;;;;;;;;;21.22;46.49;97785.63;4197774;28;5732;-61
2023/10/07 14:27:28;;;;;;;;;;;;;;;21.22;46.50;97791.00;4190364;28;5709;-60
2023/10/07 14:29:31;;;;;;;;;;;;;;;21.22;47.21;97780.25;4197328;28;5635;-63
2023/10/07 14:31:36;;;;;;;;;;;;;;;21.24;47.22;97788.88;4197511;28;5904;-65
2023/10/07 14:33:39;;;;;;;;;;;;;;;21.26;47.06;97778.75;4198451;28;6452;-64
2023/10/07 14:35:44;;;;;;;;;;;;;;;21.27;47.42;97780.38;4194465;28;5684;-64
2023/10/07 14:37:47;;;;;;;;;;;;;;;21.30;47.74;97777.22;4187072;28;6940;-63
2023/10/07 14:39:51;;;;;;;;;;;;;;;21.31;47.61;97778.88;4195054;28;7407;-65
2023/10/07 14:42:01;;;;;;;;;;;;;;;21.33;47.97;97786.69;4200253;28;5639;-62
2023/10/07 14:44:04;;;;;;;;;;;;;;;21.32;47.59;97780.50;4195689;28;5898;-64
2023/10/07 14:46:10;;;;;;;;;;;;;;;21.31;47.78;97784.25;4197094;28;5700;-63
2023/10/07 14:48:17;;;;;;;;;;;;;;;21.31;48.01;97784.25;4198411;28;5713;-61
2023/10/07 14:50:20;;;;;;;;;;;;;;;21.30;48.37;97779.91;4201754;28;5839;-60
2023/10/07 14:52:23;;;;;;;;;;;;;;;21.30;47.97;97774.53;4194950;28;5632;-68
2023/10/07 14:54:26;;;;;;;;;;;;;;;21.31;48.48;97778.88;4191909;28;5777;-62
2023/10/07 14:56:29;;;;;;;;;;;;;;;21.33;48.38;97775.94;4195452;28;5713;-68
2023/10/07 14:58:32;;;;;;;;;;;;;;;21.34;48.61;97777.56;4194923;28;5797;-69
2023/10/07 15:00:36;;;;;;;;;;;;;;;21.34;48.37;97772.19;4198710;28;5623;-68
2023/10/07 15:02:39;;;;;;;;;;;;;;;21.36;48.49;97778.13;4201521;28;5833;-67
2023/10/07 15:04:45;;;;;;;;;;;;;;;21.37;48.43;97780.59;4193930;28;5632;-67
2023/10/07 15:06:48;;;;;;;;;;;;;;;21.39;48.73;97780.34;4190824;28;6420;-68
2023/10/07 15:08:51;;;;;;;;;;;;;;;21.38;48.51;97779.53;4194862;28;5627;-68
2023/10/07 15:10:54;;;;;;;;;;;;;;;21.39;48.66;97783.84;4194506;28;5662;-68
2023/10/07 15:12:58;;;;;;;;;;;;;;;21.40;48.79;97777.41;4192140;28;5741;-67
2023/10/07 15:15:01;;;;;;;;;;;;;;;21.42;48.90;97780.69;4197251;28;5482;-66
2023/10/07 15:17:05;;;;;;;;;;;;;;;21.42;48.81;97778.00;4198658;28;5980;-66
2023/10/07 15:19:10;;;;;;;;;;;;;;;21.43;49.03;97778.84;4183961;28;5766;-65
2023/10/07 15:21:17;;;;;;;;;;;;;;;21.42;48.81;97774.50;4195829;28;5887;-66
2023/10/07 15:23:20;;;;;;;;;;;;;;;21.42;48.72;97778.00;4182716;28;5635;-65
2023/10/07 15:25:23;;;;;;;;;;;;;;;21.43;48.74;97774.25;4201521;28;5712;-66
2023/10/07 15:27:28;;;;;;;;;;;;;;;21.43;48.95;97771.56;4193182;28;5698;-66
2023/10/07 15:29:33;;;;;;;;;;;;;;;21.43;48.68;97768.88;4200525;28;5633;-59
2023/10/07 15:31:37;;;;;;;;;;;;;;;21.42;48.60;97764.56;4197734;28;5090;-64
2023/10/07 15:33:53;;;;;;;;;;;;;;;21.43;49.07;97771.56;4204357;28;5708;-67
2023/10/07 15:35:59;;;;;;;;;;;;;;;21.44;49.12;97773.22;4194068;28;5714;-63
2023/10/07 15:38:04;;;;;;;;;;;;;;;21.43;49.35;97771.56;4190196;28;5663;-66
2023/10/07 15:40:09;;;;;;;;;;;;;;;21.45;49.16;97761.38;4194920;28;5117;-65
2023/10/07 15:42:12;;;;;;;;;;;;;;;21.45;49.77;97758.69;4195431;28;5613;-64
2023/10/07 15:44:15;;;;;;;;;;;;;;;21.45;49.49;97763.25;4196453;28;5782;-62
2023/10/07 15:46:18;;;;;;;;;;;;;;;21.44;49.55;97759.75;4199650;28;5620;-59
2023/10/07 15:48:22;;;;;;;;;;;;;;;21.43;49.90;97760.81;4201835;28;5684;-61
2023/10/07 15:50:25;;;;;;;;;;;;;;;21.41;50.05;97757.56;4200510;28;5869;-61
2023/10/07 15:52:28;;;;;;;;;;;;;;;21.41;50.17;97760.25;4199850;28;5646;-61
2023/10/07 15:54:33;;;;;;;;;;;;;;;21.41;49.80;97762.94;4193684;28;5785;-61
2023/10/07 15:56:39;;;;;;;;;;;;;;;21.40;49.91;97758.59;4197091;28;5639;-60
2023/10/07 15:58:44;;;;;;;;;;;;;;;21.41;50.17;97764.81;4199341;28;6329;-60
2023/10/07 16:00:47;;;;;;;;;;;;;;;21.38;50.39;97760.69;4193353;28;5774;-65
2023/10/07 16:02:50;;;;;;;;;;;;;;;21.39;50.75;97765.03;4199555;28;5624;-66
2023/10/07 16:04:53;;;;;;;;;;;;;;;21.38;50.87;97763.38;4200257;28;5638;-70
2023/10/07 16:07:01;;;;;;;;;;;;;;;21.38;50.47;97763.38;4201296;28;5605;-71
2023/10/07 16:09:12;;;;;;;;;;;;;;;21.39;50.87;97754.25;4200227;28;5798;-71
2023/10/07 16:11:21;;;;;;;;;;;;;;;21.38;50.45;97758.00;4201726;28;5691;-66
2023/10/07 16:13:25;;;;;;;;;;;;;;;21.38;50.76;97758.00;4194569;28;5792;-69
2023/10/07 16:15:28;;;;;;;;;;;;;;;21.36;50.60;97762.81;4195137;28;5841;-65
2023/10/07 16:17:31;;;;;;;;;;;;;;;21.34;50.90;97762.25;4198814;28;5621;-65
2023/10/07 16:19:35;;;;;;;;;;;;;;;21.34;50.82;97762.25;4204064;28;5640;-64
2023/10/07 16:21:38;;;;;;;;;;;;;;;21.32;50.92;97758.16;4203446;28;5680;-64
2023/10/07 16:23:42;;;;;;;;;;;;;;;21.31;51.20;97762.72;4196509;28;5768;-64
2023/10/07 16:25:45;;;;;;;;;;;;;;;21.30;51.17;97761.09;4202338;28;5695;-65
2023/10/07 16:27:49;;;;;;;;;;;;;;;21.30;51.01;97769.16;4200867;28;5699;-65
2023/10/07 16:29:52;;;;;;;;;;;;;;;21.29;51.08;97766.69;4194976;28;5764;-66
2023/10/07 16:31:54;;;;;;;;;;;;;;;21.28;51.56;97768.56;4199046;28;5652;-66
2023/10/07 16:33:58;;;;;;;;;;;;;;;21.26;51.47;97770.66;4197198;28;5842;-66
2023/10/07 16:36:04;;;;;;;;;;;;;;;21.25;51.67;97766.31;4181436;28;5647;-66
2023/10/07 16:38:09;;;;;;;;;;;;;;;21.23;51.69;97768.44;4197630;28;5725;-66
2023/10/07 16:40:16;;;;;;;;;;;;;;;21.23;51.70;97768.44;4200477;28;5094;-68
2023/10/07 16:42:19;;;;;;;;;;;;;;;21.22;51.85;97777.56;4197873;28;5691;-61
2023/10/07 16:44:24;;;;;;;;;;;;;;;21.20;51.67;97771.59;4194675;28;5635;-61
2023/10/07 16:46:31;;;;;;;;;;;;;;;21.20;51.79;97775.09;4198555;28;5707;-61
2023/10/07 16:48:35;;;;;;;;;;;;;;;21.18;51.95;97769.16;4198853;28;5715;-61
2023/10/07 16:50:38;;;;;;;;;;;;;;;21.18;51.85;97769.16;4197629;28;5097;-61
2023/10/07 16:52:42;;;;;;;;;;;;;;;21.16;51.97;97773.13;4202262;28;5621;-61
2023/10/07 16:54:46;;;;;;;;;;;;;;;21.15;52.06;97769.59;4200680;28;5624;-61
2023/10/07 16:56:48;;;;;;;;;;;;;;;21.14;52.15;97773.34;4183659;28;5658;-61
2023/10/07 16:58:51;;;;;;;;;;;;;;;21.13;52.14;97776.28;4200190;28;5121;-61
2023/10/07 17:00:56;;;;;;;;;;;;;;;21.12;52.52;97766.59;4200164;28;5635;-61
2023/10/07 17:02:58;;;;;;;;;;;;;;;21.09;52.26;97767.06;4199986;28;5795;-61
2023/10/07 17:05:02;;;;;;;;;;;;;;;21.10;52.68;97779.44;4200136;28;5636;-60
2023/10/07 17:07:07;;;;;;;;;;;;;;;21.07;52.36;97769.19;4200773;28;5778;-60
2023/10/07 17:09:11;;;;;;;;;;;;;;;21.06;52.37;97772.91;4199859;28;5640;-60
2023/10/07 17:11:17;;;;;;;;;;;;;;;21.05;52.87;97779.31;4200351;28;5720;-60
2023/10/07 17:13:24;;;;;;;;;;;;;;;21.03;52.95;97784.13;4200493;28;7331;-61
2023/10/07 17:15:28;;;;;;;;;;;;;;;21.02;52.84;97783.31;4200170;28;5735;-58
2023/10/07 17:17:32;;;;;;;;;;;;;;;21.01;52.72;97789.75;4199898;28;5835;-59
2023/10/07 17:19:37;;;;;;;;;;;;;;;21.01;52.71;97788.94;4199975;28;5647;-60
2023/10/07 17:21:40;;;;;;;;;;;;;;;21.00;52.78;97793.50;4203085;28;5691;-59
2023/10/07 17:23:42;;;;;;;;;;;;;;;20.99;52.81;97796.41;4200291;28;5703;-59
2023/10/07 17:25:48;;;;;;;;;;;;;;;20.98;53.13;97800.16;4202259;28;5707;-60
2023/10/07 17:27:51;;;;;;;;;;;;;;;20.97;52.89;97809.28;4200017;28;5687;-59
2023/10/07 17:29:54;;;;;;;;;;;;;;;20.96;52.89;97810.34;4201717;28;5633;-59
2023/10/07 17:31:57;;;;;;;;;;;;;;;20.96;52.85;97810.34;4199999;28;5911;-59